createdAt,value
2022-07-26T00:01:40.724Z,39.70
2022-07-26T00:04:07.998Z,39.70
2022-07-26T00:06:34.968Z,39.50
2022-07-26T00:09:02.167Z,39.50
2022-07-26T00:11:30.591Z,39.50
2022-07-26T00:13:57.627Z,39.50
2022-07-26T00:16:24.791Z,39.60
2022-07-26T00:18:51.953Z,39.60
2022-07-26T00:21:18.962Z,39.70
2022-07-26T00:23:45.941Z,39.60
2022-07-26T00:26:12.929Z,39.60
2022-07-26T00:28:41.478Z,39.80
2022-07-26T00:31:09.199Z,39.60
2022-07-26T00:33:36.251Z,39.30
2022-07-26T00:36:03.315Z,39.20
2022-07-26T00:38:30.500Z,39.10
2022-07-26T00:40:57.754Z,38.50
2022-07-26T00:43:24.726Z,38.20
2022-07-26T00:45:51.918Z,38.30
2022-07-26T00:48:19.579Z,38.50
2022-07-26T00:50:46.644Z,38.40
2022-07-26T00:53:13.702Z,38.80
2022-07-26T00:55:40.845Z,38.80
2022-07-26T00:58:07.817Z,38.50
2022-07-26T01:00:35.224Z,38.80
2022-07-26T01:03:02.838Z,38.90
2022-07-26T01:05:30.401Z,39.00
2022-07-26T01:07:58.154Z,38.90
2022-07-26T01:10:26.233Z,38.60
2022-07-26T01:12:53.563Z,38.10
2022-07-26T01:15:20.710Z,38.60
2022-07-26T01:17:47.729Z,38.50
2022-07-26T01:20:15.413Z,38.50
2022-07-26T01:22:42.477Z,38.70
2022-07-26T01:25:10.410Z,38.40
2022-07-26T01:27:39.759Z,38.60
2022-07-26T01:30:11.931Z,38.40
2022-07-26T01:32:39.458Z,38.40
2022-07-26T01:35:07.507Z,38.70
2022-07-26T01:37:34.569Z,38.50
2022-07-26T01:40:01.862Z,38.80
2022-07-26T01:42:28.797Z,38.60
2022-07-26T01:44:55.927Z,38.50
2022-07-26T01:47:23.068Z,38.00
2022-07-26T01:49:50.156Z,37.60
2022-07-26T01:52:17.384Z,37.80
2022-07-26T01:54:44.554Z,37.40
2022-07-26T01:57:11.506Z,37.90
2022-07-26T01:59:38.465Z,37.00
2022-07-26T02:02:05.612Z,37.40
2022-07-26T02:04:51.018Z,37.00
2022-07-26T02:07:17.997Z,37.40
2022-07-26T02:09:45.054Z,37.50
2022-07-26T02:12:14.160Z,38.00
2022-07-26T02:14:41.150Z,38.30
2022-07-26T02:17:08.352Z,38.10
2022-07-26T02:19:35.687Z,38.30
2022-07-26T02:22:02.698Z,38.20
2022-07-26T02:24:30.111Z,37.70
2022-07-26T02:26:58.717Z,37.90
2022-07-26T02:29:26.431Z,37.90
2022-07-26T02:31:54.655Z,37.40
2022-07-26T02:34:21.658Z,36.90
2022-07-26T02:36:48.768Z,37.50
2022-07-26T02:39:15.933Z,37.60
2022-07-26T02:41:43.035Z,37.80
2022-07-26T02:44:10.894Z,38.20
2022-07-26T02:46:38.215Z,38.30
2022-07-26T02:49:05.433Z,38.30
2022-07-26T02:51:32.679Z,38.40
2022-07-26T02:54:00.702Z,38.70
2022-07-26T02:56:27.719Z,38.90
2022-07-26T02:58:54.728Z,38.80
2022-07-26T03:01:22.357Z,38.90
2022-07-26T03:03:51.120Z,38.90
2022-07-26T03:06:19.519Z,38.80
2022-07-26T03:08:47.639Z,39.10
2022-07-26T03:11:15.361Z,39.10
2022-07-26T03:13:42.453Z,39.00
2022-07-26T03:16:09.582Z,38.50
2022-07-26T03:18:52.100Z,38.20
2022-07-26T03:21:19.155Z,38.30
2022-07-26T03:23:46.104Z,38.20
2022-07-26T03:26:13.117Z,38.50
2022-07-26T03:28:42.541Z,38.30
2022-07-26T03:31:09.576Z,38.20
2022-07-26T03:33:36.659Z,38.40
2022-07-26T03:36:03.771Z,38.10
2022-07-26T03:38:30.828Z,37.40
2022-07-26T03:40:57.952Z,38.00
2022-07-26T03:43:24.992Z,37.60
2022-07-26T03:45:54.212Z,37.80
2022-07-26T03:48:22.314Z,37.80
2022-07-26T03:50:49.469Z,37.80
2022-07-26T03:53:16.459Z,38.10
2022-07-26T03:56:01.831Z,37.90
2022-07-26T03:58:28.785Z,37.50
2022-07-26T04:00:55.854Z,37.10
2022-07-26T04:03:22.893Z,37.60
2022-07-26T04:05:49.886Z,38.20
2022-07-26T04:08:19.761Z,38.50
2022-07-26T04:10:48.218Z,38.50
2022-07-26T04:13:15.299Z,38.20
2022-07-26T04:15:42.353Z,37.50
2022-07-26T04:18:09.812Z,37.50
2022-07-26T04:20:36.859Z,36.80
2022-07-26T04:23:03.866Z,37.60
2022-07-26T04:25:38.595Z,37.50
2022-07-26T04:28:08.924Z,37.40
2022-07-26T04:30:36.860Z,37.70
2022-07-26T04:33:04.621Z,37.20
2022-07-26T04:35:31.868Z,37.40
2022-07-26T04:37:58.989Z,37.60
2022-07-26T04:40:29.408Z,37.80
2022-07-26T04:42:56.482Z,37.90
2022-07-26T04:45:24.469Z,38.40
2022-07-26T04:47:51.652Z,37.80
2022-07-26T04:50:20.245Z,38.00
2022-07-26T04:52:48.252Z,37.70
2022-07-26T04:55:16.396Z,37.40
2022-07-26T04:57:43.808Z,37.60
2022-07-26T05:00:22.544Z,37.60
2022-07-26T05:02:55.812Z,37.60
2022-07-26T05:05:24.448Z,37.40
2022-07-26T05:07:56.553Z,37.60
2022-07-26T05:10:29.808Z,37.80
2022-07-26T05:12:56.798Z,37.90
2022-07-26T05:15:23.902Z,37.40
2022-07-26T05:17:51.640Z,37.00
2022-07-26T05:20:19.335Z,37.70
2022-07-26T05:22:47.166Z,38.20
2022-07-26T05:25:14.314Z,37.80
2022-07-26T05:27:41.933Z,37.80
2022-07-26T05:30:10.591Z,38.00
2022-07-26T05:32:37.624Z,38.40
2022-07-26T05:35:05.485Z,38.70
2022-07-26T05:37:32.507Z,38.60
2022-07-26T05:39:59.566Z,38.40
2022-07-26T05:42:26.963Z,37.80
2022-07-26T05:44:54.017Z,37.70
2022-07-26T05:47:22.955Z,37.20
2022-07-26T05:49:49.974Z,37.00
2022-07-26T05:52:17.016Z,36.90
2022-07-26T05:54:44.141Z,37.40
2022-07-26T05:57:11.122Z,37.40
2022-07-26T05:59:38.117Z,38.00
2022-07-26T06:02:05.544Z,37.30
2022-07-26T06:04:32.720Z,37.60
2022-07-26T06:06:59.992Z,37.50
2022-07-26T06:09:27.174Z,38.60
2022-07-26T06:11:54.526Z,38.80
2022-07-26T06:14:21.673Z,38.90
2022-07-26T06:16:49.128Z,38.40
2022-07-26T06:19:16.795Z,38.50
2022-07-26T06:21:45.845Z,38.80
2022-07-26T06:24:13.199Z,38.90
2022-07-26T06:26:40.578Z,38.60
2022-07-26T06:29:07.801Z,38.20
2022-07-26T06:31:35.109Z,38.50
2022-07-26T06:34:02.351Z,38.50
2022-07-26T06:36:31.036Z,38.90
2022-07-26T06:38:58.650Z,39.30
2022-07-26T06:41:25.967Z,39.20
2022-07-26T06:43:52.995Z,39.70
2022-07-26T06:46:21.372Z,39.80
2022-07-26T06:48:53.025Z,39.20
2022-07-26T06:51:23.784Z,39.40
2022-07-26T06:53:50.829Z,39.20
2022-07-26T06:56:19.112Z,39.10
2022-07-26T06:58:46.807Z,38.80
2022-07-26T07:01:58.459Z,38.80
2022-07-26T07:04:00.906Z,39.20
2022-07-26T07:06:27.924Z,39.40
2022-07-26T07:08:54.951Z,38.60
2022-07-26T07:11:22.403Z,37.60
2022-07-26T07:13:49.680Z,37.70
2022-07-26T07:16:16.694Z,37.50
2022-07-26T07:18:43.720Z,38.20
2022-07-26T07:21:10.696Z,39.30
2022-07-26T07:23:37.740Z,39.30
2022-07-26T07:26:04.714Z,39.60
2022-07-26T07:28:33.878Z,39.30
2022-07-26T07:31:01.589Z,39.70
2022-07-26T07:33:36.692Z,40.50
2022-07-26T07:36:18.280Z,40.70
2022-07-26T07:38:46.059Z,40.80
2022-07-26T07:41:13.177Z,40.30
2022-07-26T07:43:40.146Z,39.90
2022-07-26T07:46:07.413Z,38.80
2022-07-26T07:48:34.493Z,38.80
2022-07-26T07:51:01.467Z,38.90
2022-07-26T07:53:30.958Z,39.30
2022-07-26T07:55:58.003Z,39.40
2022-07-26T07:58:25.132Z,39.90
2022-07-26T08:00:55.495Z,40.60
2022-07-26T08:03:22.495Z,41.20
2022-07-26T08:05:50.792Z,42.00
2022-07-26T08:08:22.364Z,42.00
2022-07-26T08:10:52.266Z,41.50
2022-07-26T08:13:21.975Z,40.20
2022-07-26T08:15:51.025Z,39.70
2022-07-26T08:18:18.159Z,39.80
2022-07-26T08:20:48.887Z,39.50
2022-07-26T08:23:16.794Z,39.80
2022-07-26T08:25:55.612Z,40.20
2022-07-26T08:28:45.643Z,40.40
2022-07-26T08:31:11.015Z,41.00
2022-07-26T08:33:39.334Z,40.60
2022-07-26T08:36:08.227Z,40.20
2022-07-26T08:38:35.235Z,40.20
2022-07-26T08:41:02.306Z,41.00
2022-07-26T08:43:29.695Z,41.30
2022-07-26T08:46:03.035Z,41.10
2022-07-26T08:48:30.235Z,40.20
2022-07-26T08:50:57.448Z,40.40
2022-07-26T08:53:24.636Z,40.20
2022-07-26T08:56:07.032Z,39.90
2022-07-26T08:58:37.345Z,40.40
2022-07-26T09:01:09.726Z,40.30
2022-07-26T09:03:38.240Z,40.40
2022-07-26T09:06:22.469Z,40.60
2022-07-26T09:08:53.878Z,40.10
2022-07-26T09:11:31.335Z,40.90
2022-07-26T09:13:59.621Z,40.90
2022-07-26T09:16:27.352Z,40.80
2022-07-26T09:18:55.146Z,40.90
2022-07-26T09:21:34.364Z,40.30
2022-07-26T09:24:01.404Z,39.90
2022-07-26T09:26:28.735Z,39.40
2022-07-26T09:29:22.233Z,38.90
2022-07-26T09:31:49.199Z,38.80
2022-07-26T09:34:25.907Z,38.80
2022-07-26T09:36:54.285Z,38.90
2022-07-26T09:39:33.628Z,38.70
2022-07-26T09:42:27.336Z,39.10
2022-07-26T09:44:56.842Z,38.80
2022-07-26T09:47:36.219Z,38.70
2022-07-26T09:50:19.163Z,39.10
2022-07-26T09:53:09.176Z,39.60
2022-07-26T09:55:54.328Z,39.70
2022-07-26T09:58:23.064Z,40.40
2022-07-26T10:00:50.789Z,40.10
2022-07-26T10:03:17.984Z,40.10
2022-07-26T10:05:45.201Z,40.70
2022-07-26T10:08:12.834Z,40.90
2022-07-26T10:11:09.955Z,41.40
2022-07-26T10:13:38.309Z,41.60
2022-07-26T10:16:05.484Z,41.60
2022-07-26T10:18:39.009Z,41.60
2022-07-26T10:21:28.110Z,42.00
2022-07-26T10:23:59.697Z,42.80
2022-07-26T10:26:32.604Z,43.00
2022-07-26T10:29:17.705Z,43.00
2022-07-26T10:31:50.046Z,44.10
2022-07-26T10:34:43.732Z,44.30
2022-07-26T10:37:23.680Z,44.80
2022-07-26T10:40:17.290Z,44.50
2022-07-26T10:42:45.452Z,45.20
2022-07-26T10:45:22.285Z,46.20
2022-07-26T10:48:13.539Z,45.90
2022-07-26T10:50:45.494Z,45.50
2022-07-26T10:53:27.443Z,45.80
2022-07-26T10:55:57.485Z,46.00
2022-07-26T10:58:26.638Z,45.70
2022-07-26T11:00:59.880Z,45.80
2022-07-26T11:03:43.020Z,45.30
2022-07-26T11:06:30.259Z,44.90
2022-07-26T11:08:57.262Z,44.80
2022-07-26T11:11:32.665Z,43.90
2022-07-26T11:14:07.301Z,43.60
2022-07-26T11:16:46.605Z,43.50
2022-07-26T11:19:16.558Z,43.60
2022-07-26T11:21:53.111Z,43.90
2022-07-26T11:24:22.191Z,44.50
2022-07-26T11:26:49.476Z,44.80
2022-07-26T11:29:35.109Z,45.00
2022-07-26T11:32:16.466Z,45.00
2022-07-26T11:34:45.603Z,44.40
2022-07-26T11:37:12.816Z,44.60
2022-07-26T11:39:40.124Z,44.60
2022-07-26T11:42:13.866Z,45.00
2022-07-26T11:44:45.604Z,44.50
2022-07-26T11:47:19.793Z,44.00
2022-07-26T11:49:52.845Z,43.60
2022-07-26T11:52:32.303Z,43.20
2022-07-26T11:55:00.398Z,42.90
2022-07-26T11:57:32.016Z,43.40
2022-07-26T12:00:00.926Z,43.20
2022-07-26T12:02:30.216Z,42.60
2022-07-26T12:05:19.425Z,42.30
2022-07-26T12:07:57.978Z,41.10
2022-07-26T12:10:25.387Z,40.60
2022-07-26T12:13:07.442Z,40.30
2022-07-26T12:15:53.773Z,40.30
2022-07-26T12:18:25.274Z,40.20
2022-07-26T12:21:08.264Z,40.30
2022-07-26T12:23:45.773Z,40.50
2022-07-26T12:26:26.897Z,40.70
2022-07-26T12:28:54.478Z,40.70
2022-07-26T12:31:29.188Z,40.30
2022-07-26T12:33:56.692Z,40.70
2022-07-26T12:36:27.804Z,41.00
2022-07-26T12:39:01.187Z,41.10
2022-07-26T12:41:39.642Z,41.10
2022-07-26T12:44:09.071Z,41.60
2022-07-26T12:46:36.915Z,41.40
2022-07-26T12:49:05.418Z,41.50
2022-07-26T12:51:32.635Z,41.50
2022-07-26T12:53:59.680Z,42.20
2022-07-26T12:56:26.671Z,43.10
2022-07-26T12:58:54.394Z,43.50
2022-07-26T13:01:21.830Z,43.70
2022-07-26T13:03:48.975Z,43.80
2022-07-26T13:06:15.979Z,44.10
2022-07-26T13:08:42.916Z,44.30
2022-07-26T13:11:10.493Z,44.60
2022-07-26T13:13:37.540Z,44.50
2022-07-26T13:16:11.165Z,44.30
2022-07-26T13:18:38.985Z,43.50
2022-07-26T13:21:06.075Z,43.60
2022-07-26T13:23:34.957Z,43.70
2022-07-26T13:26:03.471Z,43.70
2022-07-26T13:28:31.186Z,43.80
2022-07-26T13:30:58.251Z,43.60
2022-07-26T13:33:25.324Z,43.30
2022-07-26T13:35:52.297Z,43.20
2022-07-26T13:38:19.821Z,43.10
2022-07-26T13:40:46.833Z,42.90
2022-07-26T13:43:14.458Z,42.50
2022-07-26T13:45:41.462Z,42.50
2022-07-26T13:48:08.695Z,42.60
2022-07-26T13:50:35.743Z,42.80
2022-07-26T13:53:02.750Z,43.10
2022-07-26T13:55:29.735Z,42.80
2022-07-26T13:57:58.179Z,41.80
2022-07-26T14:00:27.339Z,41.90
2022-07-26T14:02:56.981Z,42.30
2022-07-26T14:05:24.656Z,42.70
2022-07-26T14:07:51.904Z,42.90
2022-07-26T14:10:19.760Z,43.30
2022-07-26T14:12:47.952Z,43.40
2022-07-26T14:15:21.647Z,43.30
2022-07-26T14:17:49.754Z,42.90
2022-07-26T14:20:20.072Z,42.80
2022-07-26T14:22:47.969Z,42.70
2022-07-26T14:25:15.034Z,42.40
2022-07-26T14:27:42.019Z,42.60
2022-07-26T14:30:09.336Z,42.30
2022-07-26T14:32:36.468Z,42.30
2022-07-26T14:35:04.310Z,42.10
2022-07-26T14:37:41.697Z,42.10
2022-07-26T14:40:13.330Z,42.40
2022-07-26T14:42:40.354Z,42.50
2022-07-26T14:45:09.728Z,42.50
2022-07-26T14:47:37.293Z,41.80
2022-07-26T14:50:07.134Z,42.10
2022-07-26T14:52:38.187Z,42.20
2022-07-26T14:55:06.165Z,42.20
2022-07-26T14:57:33.523Z,42.20
2022-07-26T15:00:07.072Z,42.00
2022-07-26T15:02:34.127Z,41.70
2022-07-26T15:05:01.757Z,41.10
2022-07-26T15:07:28.764Z,40.30
2022-07-26T15:09:55.877Z,40.30
2022-07-26T15:12:23.108Z,40.70
2022-07-26T15:14:50.214Z,40.80
2022-07-26T15:17:17.252Z,40.60
2022-07-26T15:19:44.525Z,41.10
2022-07-26T15:22:11.635Z,41.20
2022-07-26T15:24:40.086Z,41.10
2022-07-26T15:27:07.877Z,40.90
2022-07-26T15:29:36.137Z,41.40
2022-07-26T15:32:04.437Z,41.80
2022-07-26T15:34:32.191Z,42.00
2022-07-26T15:36:59.208Z,41.60
2022-07-26T15:39:26.407Z,41.50
2022-07-26T15:41:53.727Z,41.70
2022-07-26T15:44:23.744Z,41.30
2022-07-26T15:46:52.797Z,41.90
2022-07-26T15:49:20.012Z,41.20
2022-07-26T15:51:47.696Z,41.20
2022-07-26T15:54:16.337Z,41.10
2022-07-26T15:56:43.836Z,41.00
2022-07-26T15:59:11.040Z,41.10
2022-07-26T16:01:38.648Z,41.10
2022-07-26T16:04:06.053Z,40.90
2022-07-26T16:06:35.882Z,40.80
2022-07-26T16:09:16.717Z,40.70
2022-07-26T16:11:45.433Z,40.50
2022-07-26T16:14:12.379Z,40.20
2022-07-26T16:16:39.407Z,40.30
2022-07-26T16:19:06.596Z,40.10
2022-07-26T16:21:33.789Z,40.40
2022-07-26T16:24:06.109Z,40.70
2022-07-26T16:26:34.138Z,40.40
2022-07-26T16:29:01.079Z,40.50
2022-07-26T16:31:28.228Z,40.80
2022-07-26T16:33:55.403Z,40.80
2022-07-26T16:36:22.377Z,40.50
2022-07-26T16:38:49.459Z,40.30
2022-07-26T16:41:16.872Z,40.30
2022-07-26T16:43:43.954Z,40.50
2022-07-26T16:46:11.106Z,41.00
2022-07-26T16:48:38.179Z,40.50
2022-07-26T16:51:05.286Z,40.60
2022-07-26T16:53:32.294Z,40.30
2022-07-26T16:56:01.915Z,40.30
2022-07-26T16:58:28.957Z,40.30
2022-07-26T17:00:55.988Z,39.90
2022-07-26T17:03:23.856Z,39.80
2022-07-26T17:05:51.217Z,39.30
2022-07-26T17:08:18.493Z,39.30
2022-07-26T17:10:46.095Z,39.10
2022-07-26T17:13:13.157Z,39.10
2022-07-26T17:15:40.159Z,39.40
2022-07-26T17:18:07.157Z,38.90
2022-07-26T17:20:34.166Z,38.90
2022-07-26T17:23:01.326Z,39.20
2022-07-26T17:25:28.419Z,38.50
2022-07-26T17:27:55.432Z,38.80
2022-07-26T17:30:22.457Z,38.70
2022-07-26T17:32:49.671Z,39.30
2022-07-26T17:35:16.894Z,39.30
2022-07-26T17:37:43.880Z,39.70
2022-07-26T17:40:11.604Z,39.50
2022-07-26T17:42:39.280Z,39.10
2022-07-26T17:45:07.381Z,39.20
2022-07-26T17:47:34.316Z,39.30
2022-07-26T17:52:54.677Z,39.60
2022-07-26T17:55:22.172Z,39.50
2022-07-26T17:57:50.120Z,39.80
2022-07-26T18:00:22.052Z,39.50
2022-07-26T18:02:49.203Z,39.70
2022-07-26T18:05:16.864Z,39.30
2022-07-26T18:07:44.003Z,39.30
2022-07-26T18:10:11.664Z,39.70
2022-07-26T18:12:38.840Z,39.90
2022-07-26T18:15:07.653Z,40.00
2022-07-26T18:17:34.895Z,40.20
2022-07-26T18:20:02.106Z,40.30
2022-07-26T18:22:29.073Z,39.80
2022-07-26T18:24:56.049Z,40.00
2022-07-26T18:27:23.727Z,39.50
2022-07-26T18:29:50.791Z,39.70
2022-07-26T18:32:19.411Z,39.60
2022-07-26T18:34:52.298Z,39.60
2022-07-26T18:37:20.875Z,39.50
2022-07-26T18:39:51.547Z,39.70
2022-07-26T18:42:21.092Z,39.50
2022-07-26T18:44:48.031Z,39.60
2022-07-26T18:47:15.013Z,39.70
2022-07-26T18:49:42.307Z,39.90
2022-07-26T18:52:09.771Z,40.30
2022-07-26T18:54:37.591Z,40.30
2022-07-26T18:57:05.058Z,40.30
2022-07-26T18:59:32.594Z,40.30
2022-07-26T19:02:00.318Z,40.20
2022-07-26T19:04:28.194Z,40.30
2022-07-26T19:06:55.386Z,40.30
2022-07-26T19:09:22.529Z,40.30
2022-07-26T19:11:49.817Z,40.40
2022-07-26T19:14:16.912Z,40.50
2022-07-26T19:16:44.022Z,40.40
2022-07-26T19:19:12.310Z,40.30
2022-07-26T19:21:44.931Z,40.30
2022-07-26T19:24:12.366Z,40.30
2022-07-26T19:26:39.479Z,40.00
2022-07-26T19:29:06.563Z,39.90
2022-07-26T19:31:33.827Z,40.00
2022-07-26T19:34:01.869Z,40.00
2022-07-26T19:36:28.820Z,40.10
2022-07-26T19:38:57.182Z,40.00
2022-07-26T19:41:24.751Z,39.60
2022-07-26T19:43:51.769Z,39.30
2022-07-26T19:46:18.880Z,39.40
2022-07-26T19:48:45.975Z,39.40
2022-07-26T19:51:13.151Z,39.40
2022-07-26T19:53:40.217Z,39.40
2022-07-26T19:56:07.980Z,39.30
2022-07-26T19:58:36.405Z,39.50
2022-07-26T20:01:05.188Z,38.80
2022-07-26T20:03:32.743Z,38.70
2022-07-26T20:06:01.005Z,38.80
2022-07-26T20:08:28.119Z,38.80
2022-07-26T20:10:55.230Z,38.70
2022-07-26T20:13:22.402Z,38.70
2022-07-26T20:15:49.480Z,38.50
2022-07-26T20:18:19.587Z,38.40
2022-07-26T20:20:46.728Z,38.30
2022-07-26T20:23:13.810Z,38.30
2022-07-26T20:25:40.792Z,37.80
2022-07-26T20:28:07.871Z,37.20
2022-07-26T20:30:34.916Z,37.10
2022-07-26T20:33:02.209Z,37.50
2022-07-26T20:35:29.446Z,37.40
2022-07-26T20:37:56.402Z,37.90
2022-07-26T20:40:23.865Z,38.20
2022-07-26T20:42:51.833Z,38.30
2022-07-26T20:45:18.936Z,38.20
2022-07-26T20:47:45.893Z,38.50
2022-07-26T20:50:13.297Z,38.70
2022-07-26T20:52:40.320Z,38.40
2022-07-26T20:55:08.145Z,38.10
2022-07-26T20:57:36.044Z,38.20
2022-07-26T21:00:06.910Z,38.30
2022-07-26T21:02:34.251Z,38.40
2022-07-26T21:05:01.302Z,38.40
2022-07-26T21:07:55.209Z,38.20
2022-07-26T21:10:15.654Z,38.10
2022-07-26T21:12:42.910Z,37.80
2022-07-26T21:15:10.469Z,37.70
2022-07-26T21:17:38.096Z,37.60
2022-07-26T21:20:05.877Z,37.80
2022-07-26T21:22:33.122Z,37.20
2022-07-26T21:25:00.235Z,37.10
2022-07-26T21:27:27.349Z,37.30
2022-07-26T21:29:54.337Z,37.80
2022-07-26T21:32:21.477Z,38.10
2022-07-26T21:34:48.585Z,38.10
2022-07-26T21:37:15.620Z,38.10
2022-07-26T21:39:42.829Z,37.90
2022-07-26T21:42:09.855Z,38.00
2022-07-26T21:44:36.813Z,38.00
2022-07-26T21:47:05.912Z,38.30
2022-07-26T21:49:33.675Z,38.10
2022-07-26T21:52:00.699Z,37.70
2022-07-26T21:54:27.676Z,37.80
2022-07-26T21:56:54.729Z,37.40
2022-07-26T21:59:21.788Z,37.00
2022-07-26T22:01:48.855Z,36.90
2022-07-26T22:04:17.435Z,36.80
2022-07-26T22:06:44.522Z,36.70
2022-07-26T22:09:11.841Z,36.80
2022-07-26T22:11:39.087Z,36.70
2022-07-26T22:14:08.590Z,36.70
2022-07-26T22:16:35.742Z,36.70
2022-07-26T22:19:02.837Z,36.50
2022-07-26T22:21:29.956Z,36.70
2022-07-26T22:23:56.997Z,36.70
2022-07-26T22:26:27.708Z,36.40
2022-07-26T22:28:54.705Z,36.20
2022-07-26T22:31:21.782Z,36.10
2022-07-26T22:33:48.814Z,36.10
2022-07-26T22:36:17.733Z,36.20
2022-07-26T22:38:46.308Z,36.10
2022-07-26T22:41:13.312Z,35.40
2022-07-26T22:43:40.299Z,35.60
2022-07-26T22:46:07.462Z,35.60
2022-07-26T22:48:38.091Z,36.00
2022-07-26T22:51:05.819Z,36.30
2022-07-26T22:53:32.815Z,36.30
2022-07-26T22:55:59.817Z,36.20
2022-07-26T22:58:26.876Z,35.90
2022-07-26T23:00:54.503Z,35.80
2022-07-26T23:03:22.083Z,36.10
2022-07-26T23:05:50.602Z,36.30
2022-07-26T23:11:06.592Z,36.40
2022-07-26T23:13:34.294Z,36.20
2022-07-26T23:16:02.032Z,35.50
2022-07-26T23:18:31.036Z,35.60
2022-07-26T23:20:58.225Z,35.20
2022-07-26T23:23:29.755Z,35.40
2022-07-26T23:25:58.221Z,35.20
2022-07-26T23:28:37.235Z,34.90
2022-07-26T23:31:10.954Z,34.80
2022-07-26T23:33:52.516Z,34.90
2022-07-26T23:36:25.886Z,34.90
2022-07-26T23:38:53.757Z,35.20
2022-07-26T23:41:20.961Z,35.40
2022-07-26T23:43:48.085Z,35.70
2022-07-26T23:46:15.305Z,36.20
2022-07-26T23:48:42.400Z,36.00
2022-07-26T23:51:09.433Z,35.60
2022-07-26T23:53:36.602Z,35.30
2022-07-26T23:56:03.704Z,35.40
2022-07-26T23:58:30.757Z,35.30
